^^
Station Historical Data
Daily Summary for April 29, 2017 Units:  Both    English   Metric
« Previous Day
Next Day »
Daily Weekly Monthly Yearly Custom
  High: Low: Average:
Temperature: 75.6 °F /  24.2 °C 52.9 °F /  11.6 °C 63 °F /  17.2 °C
Dew Point: 52.5 °F /  11.4 °C 45.3 °F /  7.4 °C 48.2 °F /  9 °C
Humidity: 84% 37% 61%
Wind Speed: 12.1mph /  19.5km/h - 2.4mph /  3.9km/h
Wind Gust: 17.0mph /  27.4km/h - -
Wind- - ESE
Pressure: 30.12 in /  1019.9 hPa 29.97 in /  1014.8 hPa -
Precipitation: 0.00 in /  0 mm    
Historical Graphs
 
 
Tabular Data for April 29, 2017
Time Temperature Dew Point Pressure Wind Wind Speed Wind Gust Humidity Rainfall Rate (Hourly) solar Conditions
00:01 56.7 °F /  13.7 °C 48.4 °F /  9.1 °C 30.08in /  1018.5hPa Calm   2.0mph /  3.2km/h 74% 0.00in /  0mm 0.0 W/m2
00:07 56.7 °F /  13.7 °C 48.4 °F /  9.1 °C 30.08in /  1018.5hPa Calm   3.0mph /  4.8km/h 74% 0.00in /  0mm 0.0 W/m2
00:13 56.7 °F /  13.7 °C 48.4 °F /  9.1 °C 30.08in /  1018.5hPa East 0.9mph /  1.4km/h 5.0mph /  8km/h 74% 0.00in /  0mm 0.0 W/m2
00:19 56.7 °F /  13.7 °C 48.4 °F /  9.1 °C 30.08in /  1018.5hPa East 2.9mph /  4.7km/h 3.0mph /  4.8km/h 74% 0.00in /  0mm 0.0 W/m2
00:25 56.5 °F /  13.6 °C 48.7 °F /  9.3 °C 30.08in /  1018.5hPa Calm   4.0mph /  6.4km/h 75% 0.00in /  0mm 0.0 W/m2
00:31 56.5 °F /  13.6 °C 48.7 °F /  9.3 °C 30.08in /  1018.5hPa Calm   4.0mph /  6.4km/h 75% 0.00in /  0mm 0.0 W/m2
00:37 56.5 °F /  13.6 °C 48.7 °F /  9.3 °C 30.08in /  1018.5hPa Calm   4.0mph /  6.4km/h 75% 0.00in /  0mm 0.0 W/m2
00:43 56.5 °F /  13.6 °C 48.9 °F /  9.4 °C 30.08in /  1018.5hPa NNE 2.0mph /  3.2km/h 3.0mph /  4.8km/h 76% 0.00in /  0mm 0.0 W/m2
00:49 56.5 °F /  13.6 °C 48.7 °F /  9.3 °C 30.08in /  1018.5hPa ENE 2.0mph /  3.2km/h 5.0mph /  8km/h 75% 0.00in /  0mm 0.0 W/m2
00:56 56.7 °F /  13.7 °C 49.1 °F /  9.5 °C 30.08in /  1018.5hPa ENE 0.9mph /  1.4km/h 7.0mph /  11.3km/h 76% 0.00in /  0mm 0.0 W/m2
01:02 56.7 °F /  13.7 °C 48.7 °F /  9.3 °C 30.07in /  1018.2hPa NE 2.0mph /  3.2km/h 10.0mph /  16.1km/h 75% 0.00in /  0mm 0.0 W/m2
01:08 56.8 °F /  13.8 °C 48.9 °F /  9.4 °C 30.07in /  1018.2hPa Calm   8.0mph /  12.9km/h 75% 0.00in /  0mm 0.0 W/m2
01:14 57.0 °F /  13.9 °C 48.7 °F /  9.3 °C 30.07in /  1018.2hPa Calm   7.0mph /  11.3km/h 74% 0.00in /  0mm 0.0 W/m2
01:20 57.0 °F /  13.9 °C 48.7 °F /  9.3 °C 30.07in /  1018.2hPa East 4.0mph /  6.4km/h 6.0mph /  9.7km/h 74% 0.00in /  0mm 0.0 W/m2
01:26 57.0 °F /  13.9 °C 48.7 °F /  9.3 °C 30.06in /  1017.8hPa NE 2.9mph /  4.7km/h 5.0mph /  8km/h 74% 0.00in /  0mm 0.0 W/m2
01:32 57.0 °F /  13.9 °C 48.7 °F /  9.3 °C 30.06in /  1017.8hPa East 8.9mph /  14.3km/h 9.0mph /  14.5km/h 74% 0.00in /  0mm 0.0 W/m2
01:39 57.0 °F /  13.9 °C 48.7 °F /  9.3 °C 30.07in /  1018.2hPa NE 2.9mph /  4.7km/h 6.0mph /  9.7km/h 74% 0.00in /  0mm 0.0 W/m2
01:45 56.8 °F /  13.8 °C 48.6 °F /  9.2 °C 30.06in /  1017.8hPa NE 2.9mph /  4.7km/h 5.0mph /  8km/h 74% 0.00in /  0mm 0.0 W/m2
01:51 56.8 °F /  13.8 °C 48.6 °F /  9.2 °C 30.06in /  1017.8hPa East 2.0mph /  3.2km/h 9.0mph /  14.5km/h 74% 0.00in /  0mm 0.0 W/m2
01:57 56.7 °F /  13.7 °C 48.7 °F /  9.3 °C 30.06in /  1017.8hPa Calm   10.0mph /  16.1km/h 75% 0.00in /  0mm 0.0 W/m2
02:03 56.7 °F /  13.7 °C 48.7 °F /  9.3 °C 30.06in /  1017.8hPa ENE 4.9mph /  7.9km/h 5.0mph /  8km/h 75% 0.00in /  0mm 0.0 W/m2
02:09 56.5 °F /  13.6 °C 48.7 °F /  9.3 °C 30.06in /  1017.8hPa ENE 2.9mph /  4.7km/h 5.0mph /  8km/h 75% 0.00in /  0mm 0.0 W/m2
02:15 56.5 °F /  13.6 °C 48.7 °F /  9.3 °C 30.06in /  1017.8hPa ESE 0.9mph /  1.4km/h 6.0mph /  9.7km/h 75% 0.00in /  0mm 0.0 W/m2
02:21 56.3 °F /  13.5 °C 48.6 °F /  9.2 °C 30.06in /  1017.8hPa Calm   6.0mph /  9.7km/h 75% 0.00in /  0mm 0.0 W/m2
02:27 56.1 °F /  13.4 °C 48.7 °F /  9.3 °C 30.06in /  1017.8hPa Calm   4.0mph /  6.4km/h 76% 0.00in /  0mm 0.0 W/m2
02:33 56.1 °F /  13.4 °C 48.7 °F /  9.3 °C 30.06in /  1017.8hPa NE 2.0mph /  3.2km/h 7.0mph /  11.3km/h 76% 0.00in /  0mm 0.0 W/m2
02:39 55.9 °F /  13.3 °C 48.6 °F /  9.2 °C 30.06in /  1017.8hPa North 2.9mph /  4.7km/h 5.0mph /  8km/h 76% 0.00in /  0mm 0.0 W/m2
02:45 55.8 °F /  13.2 °C 48.4 °F /  9.1 °C 30.06in /  1017.8hPa ENE 2.0mph /  3.2km/h 4.0mph /  6.4km/h 76% 0.00in /  0mm 0.0 W/m2
02:51 55.8 °F /  13.2 °C 48.7 °F /  9.3 °C 30.06in /  1017.8hPa NE 4.0mph /  6.4km/h 5.0mph /  8km/h 77% 0.00in /  0mm 0.0 W/m2
02:57 55.8 °F /  13.2 °C 48.7 °F /  9.3 °C 30.06in /  1017.8hPa Calm   4.0mph /  6.4km/h 77% 0.00in /  0mm 0.0 W/m2
03:03 55.6 °F /  13.1 °C 48.6 °F /  9.2 °C 30.06in /  1017.8hPa ENE 2.0mph /  3.2km/h 4.0mph /  6.4km/h 77% 0.00in /  0mm 0.0 W/m2
03:09 55.4 °F /  13 °C 48.4 °F /  9.1 °C 30.06in /  1017.8hPa NE 6.0mph /  9.7km/h 7.0mph /  11.3km/h 77% 0.00in /  0mm 0.0 W/m2
03:15 55.4 °F /  13 °C 48.4 °F /  9.1 °C 30.06in /  1017.8hPa East 0.9mph /  1.4km/h 7.0mph /  11.3km/h 77% 0.00in /  0mm 0.0 W/m2
03:21 55.2 °F /  12.9 °C 48.2 °F /  9 °C 30.06in /  1017.8hPa NNE 2.0mph /  3.2km/h 4.0mph /  6.4km/h 77% 0.00in /  0mm 0.0 W/m2
03:27 55.0 °F /  12.8 °C 48.4 °F /  9.1 °C 30.06in /  1017.8hPa ENE 0.9mph /  1.4km/h 7.0mph /  11.3km/h 78% 0.00in /  0mm 0.0 W/m2
03:33 55.0 °F /  12.8 °C 48.4 °F /  9.1 °C 30.06in /  1017.8hPa ESE 2.0mph /  3.2km/h 2.0mph /  3.2km/h 78% 0.00in /  0mm 0.0 W/m2
03:39 54.9 °F /  12.7 °C 48.2 °F /  9 °C 30.05in /  1017.5hPa NNE 0.9mph /  1.4km/h 4.0mph /  6.4km/h 78% 0.00in /  0mm 0.0 W/m2
03:45 54.9 °F /  12.7 °C 48.2 °F /  9 °C 30.05in /  1017.5hPa NNE 2.9mph /  4.7km/h 4.0mph /  6.4km/h 78% 0.00in /  0mm 0.0 W/m2
03:51 54.9 °F /  12.7 °C 48.2 °F /  9 °C 30.05in /  1017.5hPa Calm   4.0mph /  6.4km/h 78% 0.00in /  0mm 0.0 W/m2
03:57 54.7 °F /  12.6 °C 48.0 °F /  8.9 °C 30.05in /  1017.5hPa Calm   5.0mph /  8km/h 78% 0.00in /  0mm 0.0 W/m2
04:03 54.7 °F /  12.6 °C 48.0 °F /  8.9 °C 30.05in /  1017.5hPa ENE 0.9mph /  1.4km/h 2.0mph /  3.2km/h 78% 0.00in /  0mm 0.0 W/m2
04:09 54.7 °F /  12.6 °C 48.4 °F /  9.1 °C 30.06in /  1017.8hPa NNE 2.0mph /  3.2km/h 3.0mph /  4.8km/h 79% 0.00in /  0mm 0.0 W/m2
04:15 54.7 °F /  12.6 °C 48.4 °F /  9.1 °C 30.06in /  1017.8hPa Calm   4.0mph /  6.4km/h 79% 0.00in /  0mm 0.0 W/m2
04:21 54.3 °F /  12.4 °C 48.0 °F /  8.9 °C 30.06in /  1017.8hPa NE 0.9mph /  1.4km/h 3.0mph /  4.8km/h 79% 0.00in /  0mm 0.0 W/m2
04:27 54.3 °F /  12.4 °C 48.0 °F /  8.9 °C 30.06in /  1017.8hPa Calm   2.0mph /  3.2km/h 79% 0.00in /  0mm 0.0 W/m2
04:33 54.3 °F /  12.4 °C 48.0 °F /  8.9 °C 30.06in /  1017.8hPa NNE 2.0mph /  3.2km/h 4.0mph /  6.4km/h 79% 0.00in /  0mm 0.0 W/m2
04:39 54.3 °F /  12.4 °C 48.0 °F /  8.9 °C 30.06in /  1017.8hPa NE 2.0mph /  3.2km/h 5.0mph /  8km/h 79% 0.00in /  0mm 0.0 W/m2
04:45 54.1 °F /  12.3 °C 47.8 °F /  8.8 °C 30.06in /  1017.8hPa ENE 0.9mph /  1.4km/h 4.0mph /  6.4km/h 79% 0.00in /  0mm 0.0 W/m2
04:51 54.1 °F /  12.3 °C 48.0 °F /  8.9 °C 30.06in /  1017.8hPa Calm   5.0mph /  8km/h 80% 0.00in /  0mm 0.0 W/m2
04:57 54.0 °F /  12.2 °C 48.0 °F /  8.9 °C 30.06in /  1017.8hPa Calm   2.0mph /  3.2km/h 80% 0.00in /  0mm 0.0 W/m2
05:03 53.8 °F /  12.1 °C 47.8 °F /  8.8 °C 30.07in /  1018.2hPa Calm   4.0mph /  6.4km/h 80% 0.00in /  0mm 0.0 W/m2
05:09 53.6 °F /  12 °C 47.8 °F /  8.8 °C 30.07in /  1018.2hPa East 0.9mph /  1.4km/h 3.0mph /  4.8km/h 81% 0.00in /  0mm 0.0 W/m2
05:15 53.6 °F /  12 °C 47.8 °F /  8.8 °C 30.07in /  1018.2hPa Calm   4.0mph /  6.4km/h 81% 0.00in /  0mm 0.0 W/m2
05:21 53.4 °F /  11.9 °C 47.7 °F /  8.7 °C 30.07in /  1018.2hPa ENE 0.9mph /  1.4km/h 3.0mph /  4.8km/h 81% 0.00in /  0mm 0.0 W/m2
05:27 53.6 °F /  12 °C 48.2 °F /  9 °C 30.08in /  1018.5hPa NE 2.9mph /  4.7km/h 3.0mph /  4.8km/h 82% 0.00in /  0mm 0.0 W/m2
05:33 53.6 °F /  12 °C 48.2 °F /  9 °C 30.08in /  1018.5hPa Calm   5.0mph /  8km/h 82% 0.00in /  0mm 0.0 W/m2
05:39 53.4 °F /  11.9 °C 48.0 °F /  8.9 °C 30.08in /  1018.5hPa Calm   3.0mph /  4.8km/h 82% 0.00in /  0mm 0.0 W/m2
05:45 53.2 °F /  11.8 °C 47.8 °F /  8.8 °C 30.08in /  1018.5hPa ENE 0.9mph /  1.4km/h 3.0mph /  4.8km/h 82% 0.00in /  0mm 0.0 W/m2
05:51 53.1 °F /  11.7 °C 48.0 °F /  8.9 °C 30.08in /  1018.5hPa Calm   5.0mph /  8km/h 83% 0.00in /  0mm 0.0 W/m2
05:57 53.1 °F /  11.7 °C 48.0 °F /  8.9 °C 30.09in /  1018.8hPa SE 0.9mph /  1.4km/h 5.0mph /  8km/h 83% 0.00in /  0mm 0.0 W/m2
06:03 52.9 °F /  11.6 °C 48.2 °F /  9 °C 30.09in /  1018.8hPa NNE 0.9mph /  1.4km/h 3.0mph /  4.8km/h 84% 0.00in /  0mm 0.0 W/m2
06:09 53.1 °F /  11.7 °C 48.4 °F /  9.1 °C 30.09in /  1018.8hPa NE 2.0mph /  3.2km/h 4.0mph /  6.4km/h 84% 0.00in /  0mm 0.0 W/m2
06:15 53.2 °F /  11.8 °C 48.2 °F /  9 °C 30.09in /  1018.8hPa ENE 0.9mph /  1.4km/h 5.0mph /  8km/h 83% 0.00in /  0mm 5.0 W/m2
06:21 53.2 °F /  11.8 °C 48.2 °F /  9 °C 30.09in /  1018.8hPa East 2.0mph /  3.2km/h 4.0mph /  6.4km/h 83% 0.00in /  0mm 7.0 W/m2
06:27 53.4 °F /  11.9 °C 48.4 °F /  9.1 °C 30.09in /  1018.8hPa NNE 2.9mph /  4.7km/h 4.0mph /  6.4km/h 83% 0.00in /  0mm 11.0 W/m2
06:33 53.4 °F /  11.9 °C 48.4 °F /  9.1 °C 30.09in /  1018.8hPa Calm   6.0mph /  9.7km/h 83% 0.00in /  0mm 12.0 W/m2
06:39 53.8 °F /  12.1 °C 48.7 °F /  9.3 °C 30.10in /  1019.2hPa NE 0.9mph /  1.4km/h 7.0mph /  11.3km/h 83% 0.00in /  0mm 14.0 W/m2
06:45 54.0 °F /  12.2 °C 48.6 °F /  9.2 °C 30.10in /  1019.2hPa NE 0.9mph /  1.4km/h 6.0mph /  9.7km/h 82% 0.00in /  0mm 14.0 W/m2
06:51 54.0 °F /  12.2 °C 48.6 °F /  9.2 °C 30.10in /  1019.2hPa Calm   5.0mph /  8km/h 82% 0.00in /  0mm 16.0 W/m2
06:57 54.0 °F /  12.2 °C 48.9 °F /  9.4 °C 30.10in /  1019.2hPa Calm   6.0mph /  9.7km/h 83% 0.00in /  0mm 18.0 W/m2
07:03 54.1 °F /  12.3 °C 49.1 °F /  9.5 °C 30.10in /  1019.2hPa Calm   6.0mph /  9.7km/h 83% 0.00in /  0mm 19.0 W/m2
07:09 54.5 °F /  12.5 °C 49.5 °F /  9.7 °C 30.11in /  1019.5hPa NE 6.0mph /  9.7km/h 6.0mph /  9.7km/h 83% 0.00in /  0mm 21.0 W/m2
07:15 54.9 °F /  12.7 °C 49.8 °F /  9.9 °C 30.11in /  1019.5hPa NE 6.0mph /  9.7km/h 11.0mph /  17.7km/h 83% 0.00in /  0mm 21.0 W/m2
07:21 55.2 °F /  12.9 °C 49.8 °F /  9.9 °C 30.11in /  1019.5hPa NE 4.9mph /  7.9km/h 8.0mph /  12.9km/h 82% 0.00in /  0mm 23.0 W/m2
07:27 55.6 °F /  13.1 °C 50.2 °F /  10.1 °C 30.11in /  1019.5hPa Calm   6.0mph /  9.7km/h 82% 0.00in /  0mm 25.0 W/m2
07:33 55.9 °F /  13.3 °C 50.5 °F /  10.3 °C 30.11in /  1019.5hPa NNE 0.9mph /  1.4km/h 12.0mph /  19.3km/h 82% 0.00in /  0mm 25.0 W/m2
07:39 56.5 °F /  13.6 °C 50.7 °F /  10.4 °C 30.11in /  1019.5hPa ESE 4.9mph /  7.9km/h 6.0mph /  9.7km/h 81% 0.00in /  0mm 26.0 W/m2
07:45 57.0 °F /  13.9 °C 51.3 °F /  10.7 °C 30.11in /  1019.5hPa NNE 4.0mph /  6.4km/h 8.0mph /  12.9km/h 81% 0.00in /  0mm 26.0 W/m2
07:51 57.4 °F /  14.1 °C 51.3 °F /  10.7 °C 30.11in /  1019.5hPa Calm   5.0mph /  8km/h 80% 0.00in /  0mm 28.0 W/m2
07:57 57.7 °F /  14.3 °C 51.6 °F /  10.9 °C 30.11in /  1019.5hPa NNE 2.0mph /  3.2km/h 5.0mph /  8km/h 80% 0.00in /  0mm 28.0 W/m2
08:03 58.3 °F /  14.6 °C 51.8 °F /  11 °C 30.12in /  1019.9hPa ESE 2.0mph /  3.2km/h 7.0mph /  11.3km/h 79% 0.00in /  0mm 32.0 W/m2
08:09 58.6 °F /  14.8 °C 51.8 °F /  11 °C 30.12in /  1019.9hPa East 6.0mph /  9.7km/h 8.0mph /  12.9km/h 78% 0.00in /  0mm 33.0 W/m2
08:15 59.2 °F /  15.1 °C 52.0 °F /  11.1 °C 30.12in /  1019.9hPa SE 2.0mph /  3.2km/h 4.0mph /  6.4km/h 77% 0.00in /  0mm 72.0 W/m2
08:21 59.7 °F /  15.4 °C 52.2 °F /  11.2 °C 30.12in /  1019.9hPa NE 2.9mph /  4.7km/h 5.0mph /  8km/h 76% 0.00in /  0mm 67.0 W/m2
08:27 60.6 °F /  15.9 °C 52.3 °F /  11.3 °C 30.12in /  1019.9hPa NNE 0.9mph /  1.4km/h 4.0mph /  6.4km/h 74% 0.00in /  0mm 483.0 W/m2
08:33 61.9 °F /  16.6 °C 52.0 °F /  11.1 °C 30.12in /  1019.9hPa NNW 2.0mph /  3.2km/h 6.0mph /  9.7km/h 70% 0.00in /  0mm 510.0 W/m2
08:39 63.1 °F /  17.3 °C 51.6 °F /  10.9 °C 30.12in /  1019.9hPa Calm   5.0mph /  8km/h 66% 0.00in /  0mm 519.0 W/m2
08:45 64.2 °F /  17.9 °C 51.8 °F /  11 °C 30.12in /  1019.9hPa NE 4.9mph /  7.9km/h 6.0mph /  9.7km/h 64% 0.00in /  0mm 545.0 W/m2
08:51 64.9 °F /  18.3 °C 51.6 °F /  10.9 °C 30.12in /  1019.9hPa NE 4.9mph /  7.9km/h 7.0mph /  11.3km/h 62% 0.00in /  0mm 577.0 W/m2
08:57 65.5 °F /  18.6 °C 52.2 °F /  11.2 °C 30.12in /  1019.9hPa Calm   7.0mph /  11.3km/h 62% 0.00in /  0mm 596.0 W/m2
09:03 66.0 °F /  18.9 °C 51.8 °F /  11 °C 30.12in /  1019.9hPa East 0.9mph /  1.4km/h 6.0mph /  9.7km/h 60% 0.00in /  0mm 638.0 W/m2
09:09 66.6 °F /  19.2 °C 52.2 °F /  11.2 °C 30.11in /  1019.5hPa East 4.0mph /  6.4km/h 10.0mph /  16.1km/h 60% 0.00in /  0mm 731.0 W/m2
09:15 66.7 °F /  19.3 °C 52.0 °F /  11.1 °C 30.11in /  1019.5hPa NE 0.9mph /  1.4km/h 6.0mph /  9.7km/h 59% 0.00in /  0mm 336.0 W/m2
09:21 67.3 °F /  19.6 °C 52.5 °F /  11.4 °C 30.11in /  1019.5hPa Calm   6.0mph /  9.7km/h 59% 0.00in /  0mm 244.0 W/m2
09:27 66.7 °F /  19.3 °C 52.0 °F /  11.1 °C 30.11in /  1019.5hPa NNE 4.9mph /  7.9km/h 6.0mph /  9.7km/h 59% 0.00in /  0mm 229.0 W/m2
09:33 66.6 °F /  19.2 °C 51.3 °F /  10.7 °C 30.11in /  1019.5hPa NNE 4.0mph /  6.4km/h 4.0mph /  6.4km/h 58% 0.00in /  0mm 258.0 W/m2
09:39 66.6 °F /  19.2 °C 50.4 °F /  10.2 °C 30.11in /  1019.5hPa NNW 2.0mph /  3.2km/h 11.0mph /  17.7km/h 56% 0.00in /  0mm 271.0 W/m2
09:45 66.6 °F /  19.2 °C 51.3 °F /  10.7 °C 30.10in /  1019.2hPa Calm   5.0mph /  8km/h 58% 0.00in /  0mm 283.0 W/m2
09:51 66.9 °F /  19.4 °C 50.7 °F /  10.4 °C 30.10in /  1019.2hPa Calm   9.0mph /  14.5km/h 56% 0.00in /  0mm 863.0 W/m2
09:57 68.2 °F /  20.1 °C 50.4 °F /  10.2 °C 30.10in /  1019.2hPa ENE 6.0mph /  9.7km/h 9.0mph /  14.5km/h 53% 0.00in /  0mm 294.0 W/m2
10:03 69.1 °F /  20.6 °C 51.3 °F /  10.7 °C 30.09in /  1018.8hPa East 2.0mph /  3.2km/h 5.0mph /  8km/h 53% 0.00in /  0mm 810.0 W/m2
10:09 70.0 °F /  21.1 °C 51.1 °F /  10.6 °C 30.09in /  1018.8hPa NW 4.9mph /  7.9km/h 9.0mph /  14.5km/h 51% 0.00in /  0mm 758.0 W/m2
10:15 70.3 °F /  21.3 °C 49.6 °F /  9.8 °C 30.09in /  1018.8hPa NE 8.9mph /  14.3km/h 9.0mph /  14.5km/h 48% 0.00in /  0mm 756.0 W/m2
10:21 70.3 °F /  21.3 °C 50.4 °F /  10.2 °C 30.09in /  1018.8hPa North 4.9mph /  7.9km/h 6.0mph /  9.7km/h 49% 0.00in /  0mm 758.0 W/m2
10:27 70.5 °F /  21.4 °C 48.7 °F /  9.3 °C 30.09in /  1018.8hPa North 4.0mph /  6.4km/h 11.0mph /  17.7km/h 46% 0.00in /  0mm 773.0 W/m2
10:33 70.5 °F /  21.4 °C 49.3 °F /  9.6 °C 30.08in /  1018.5hPa NNE 11.0mph /  17.7km/h 11.0mph /  17.7km/h 47% 0.00in /  0mm 780.0 W/m2
10:39 70.9 °F /  21.6 °C 49.1 °F /  9.5 °C 30.08in /  1018.5hPa NNW 6.0mph /  9.7km/h 17.0mph /  27.4km/h 46% 0.00in /  0mm 805.0 W/m2
10:45 71.4 °F /  21.9 °C 50.2 °F /  10.1 °C 30.07in /  1018.2hPa NE 6.0mph /  9.7km/h 8.0mph /  12.9km/h 47% 0.00in /  0mm 807.0 W/m2
10:51 71.8 °F /  22.1 °C 49.3 °F /  9.6 °C 30.07in /  1018.2hPa ENE 4.0mph /  6.4km/h 8.0mph /  12.9km/h 45% 0.00in /  0mm 160.0 W/m2
10:57 70.9 °F /  21.6 °C 48.6 °F /  9.2 °C 30.07in /  1018.2hPa WNW 0.9mph /  1.4km/h 8.0mph /  12.9km/h 45% 0.00in /  0mm 302.0 W/m2
11:03 71.1 °F /  21.7 °C 48.6 °F /  9.2 °C 30.07in /  1018.2hPa North 4.9mph /  7.9km/h 6.0mph /  9.7km/h 45% 0.00in /  0mm 905.0 W/m2
11:09 71.8 °F /  22.1 °C 48.7 °F /  9.3 °C 30.07in /  1018.2hPa NNE 4.9mph /  7.9km/h 12.0mph /  19.3km/h 44% 0.00in /  0mm 930.0 W/m2
11:15 72.0 °F /  22.2 °C 48.9 °F /  9.4 °C 30.07in /  1018.2hPa North 6.0mph /  9.7km/h 12.0mph /  19.3km/h 44% 0.00in /  0mm 940.0 W/m2
11:22 72.0 °F /  22.2 °C 48.2 °F /  9 °C 30.06in /  1017.8hPa North 8.9mph /  14.3km/h 10.0mph /  16.1km/h 43% 0.00in /  0mm 847.0 W/m2
11:28 72.3 °F /  22.4 °C 49.1 °F /  9.5 °C 30.06in /  1017.8hPa NNW 4.9mph /  7.9km/h 13.0mph /  20.9km/h 44% 0.00in /  0mm 954.0 W/m2
11:34 72.7 °F /  22.6 °C 48.2 °F /  9 °C 30.05in /  1017.5hPa NNE 8.1mph /  13km/h 10.0mph /  16.1km/h 42% 0.00in /  0mm 265.0 W/m2
11:40 72.3 °F /  22.4 °C 49.1 °F /  9.5 °C 30.05in /  1017.5hPa East 6.0mph /  9.7km/h 9.0mph /  14.5km/h 44% 0.00in /  0mm 967.0 W/m2
11:46 72.3 °F /  22.4 °C 49.8 °F /  9.9 °C 30.05in /  1017.5hPa NNE 4.9mph /  7.9km/h 5.0mph /  8km/h 45% 0.00in /  0mm 947.0 W/m2
11:52 72.7 °F /  22.6 °C 48.9 °F /  9.4 °C 30.05in /  1017.5hPa ENE 4.0mph /  6.4km/h 10.0mph /  16.1km/h 43% 0.00in /  0mm 958.0 W/m2
11:58 72.9 °F /  22.7 °C 48.4 °F /  9.1 °C 30.05in /  1017.5hPa NE 10.1mph /  16.3km/h 10.1mph /  16.3km/h 42% 0.00in /  0mm 856.0 W/m2
12:04 72.7 °F /  22.6 °C 48.2 °F /  9 °C 30.04in /  1017.2hPa ENE 2.9mph /  4.7km/h 10.0mph /  16.1km/h 42% 0.00in /  0mm 937.0 W/m2
12:10 72.9 °F /  22.7 °C 48.4 °F /  9.1 °C 30.04in /  1017.2hPa NNE 6.9mph /  11.1km/h 10.0mph /  16.1km/h 42% 0.00in /  0mm 1034.0 W/m2
12:17 73.2 °F /  22.9 °C 48.0 °F /  8.9 °C 30.03in /  1016.8hPa NNW 8.9mph /  14.3km/h 13.0mph /  20.9km/h 41% 0.00in /  0mm 889.0 W/m2
12:22 73.8 °F /  23.2 °C 48.6 °F /  9.2 °C 30.03in /  1016.8hPa NNE 6.9mph /  11.1km/h 7.0mph /  11.3km/h 41% 0.00in /  0mm 898.0 W/m2
12:28 73.9 °F /  23.3 °C 48.7 °F /  9.3 °C 30.03in /  1016.8hPa North 4.0mph /  6.4km/h 12.0mph /  19.3km/h 41% 0.00in /  0mm 926.0 W/m2
12:35 73.8 °F /  23.2 °C 48.0 °F /  8.9 °C 30.03in /  1016.8hPa ENE 0.9mph /  1.4km/h 8.0mph /  12.9km/h 40% 0.00in /  0mm 904.0 W/m2
12:41 73.9 °F /  23.3 °C 48.0 °F /  8.9 °C 30.03in /  1016.8hPa NNW 4.0mph /  6.4km/h 15.0mph /  24.1km/h 40% 0.00in /  0mm 918.0 W/m2
12:47 73.6 °F /  23.1 °C 48.4 °F /  9.1 °C 30.03in /  1016.8hPa NW 8.1mph /  13km/h 8.1mph /  13km/h 41% 0.00in /  0mm 230.0 W/m2
12:53 73.2 °F /  22.9 °C 48.7 °F /  9.3 °C 30.02in /  1016.5hPa NNW 4.0mph /  6.4km/h 7.0mph /  11.3km/h 42% 0.00in /  0mm 891.0 W/m2
12:59 73.6 °F /  23.1 °C 48.4 °F /  9.1 °C 30.02in /  1016.5hPa NW 6.0mph /  9.7km/h 14.0mph /  22.5km/h 41% 0.00in /  0mm 214.0 W/m2
13:05 73.6 °F /  23.1 °C 49.1 °F /  9.5 °C 30.02in /  1016.5hPa NNE 4.9mph /  7.9km/h 8.0mph /  12.9km/h 42% 0.00in /  0mm 241.0 W/m2
13:11 73.2 °F /  22.9 °C 48.0 °F /  8.9 °C 30.02in /  1016.5hPa NNE 2.0mph /  3.2km/h 5.0mph /  8km/h 41% 0.00in /  0mm 257.0 W/m2
13:18 73.6 °F /  23.1 °C 48.4 °F /  9.1 °C 30.01in /  1016.1hPa NNE 6.9mph /  11.1km/h 7.0mph /  11.3km/h 41% 0.00in /  0mm 962.0 W/m2
13:24 74.1 °F /  23.4 °C 48.2 °F /  9 °C 30.01in /  1016.1hPa North 6.0mph /  9.7km/h 7.0mph /  11.3km/h 40% 0.00in /  0mm 807.0 W/m2
13:30 74.8 °F /  23.8 °C 47.5 °F /  8.6 °C 30.01in /  1016.1hPa NE 4.9mph /  7.9km/h 9.0mph /  14.5km/h 38% 0.00in /  0mm 759.0 W/m2
13:36 75.0 °F /  23.9 °C 48.4 °F /  9.1 °C 30.01in /  1016.1hPa NNW 6.0mph /  9.7km/h 6.0mph /  9.7km/h 39% 0.00in /  0mm 803.0 W/m2
13:42 75.0 °F /  23.9 °C 48.4 °F /  9.1 °C 30.00in /  1015.8hPa NNW 4.0mph /  6.4km/h 10.0mph /  16.1km/h 39% 0.00in /  0mm 744.0 W/m2
13:48 75.0 °F /  23.9 °C 48.4 °F /  9.1 °C 30.00in /  1015.8hPa NNE 4.9mph /  7.9km/h 9.0mph /  14.5km/h 39% 0.00in /  0mm 777.0 W/m2
13:54 75.0 °F /  23.9 °C 48.4 °F /  9.1 °C 30.00in /  1015.8hPa NW 6.0mph /  9.7km/h 7.0mph /  11.3km/h 39% 0.00in /  0mm 752.0 W/m2
14:00 75.4 °F /  24.1 °C 48.7 °F /  9.3 °C 30.00in /  1015.8hPa NNE 4.0mph /  6.4km/h 10.0mph /  16.1km/h 39% 0.00in /  0mm 689.0 W/m2
14:06 75.4 °F /  24.1 °C 48.0 °F /  8.9 °C 30.00in /  1015.8hPa North 4.9mph /  7.9km/h 8.0mph /  12.9km/h 38% 0.00in /  0mm 647.0 W/m2
14:13 75.6 °F /  24.2 °C 48.2 °F /  9 °C 29.99in /  1015.5hPa North 6.9mph /  11.1km/h 9.0mph /  14.5km/h 38% 0.00in /  0mm 617.0 W/m2
14:19 75.6 °F /  24.2 °C 48.2 °F /  9 °C 29.99in /  1015.5hPa North 4.9mph /  7.9km/h 8.0mph /  12.9km/h 38% 0.00in /  0mm 606.0 W/m2
14:25 75.6 °F /  24.2 °C 48.2 °F /  9 °C 29.99in /  1015.5hPa NW 2.0mph /  3.2km/h 11.0mph /  17.7km/h 38% 0.00in /  0mm 582.0 W/m2
14:31 75.6 °F /  24.2 °C 47.5 °F /  8.6 °C 29.98in /  1015.1hPa NW 2.9mph /  4.7km/h 9.0mph /  14.5km/h 37% 0.00in /  0mm 561.0 W/m2
14:37 75.6 °F /  24.2 °C 47.5 °F /  8.6 °C 29.98in /  1015.1hPa Calm   8.0mph /  12.9km/h 37% 0.00in /  0mm 545.0 W/m2
14:43 75.4 °F /  24.1 °C 47.3 °F /  8.5 °C 29.98in /  1015.1hPa North 12.1mph /  19.5km/h 12.1mph /  19.5km/h 37% 0.00in /  0mm 527.0 W/m2
14:49 75.0 °F /  23.9 °C 46.9 °F /  8.3 °C 29.98in /  1015.1hPa NNW 2.0mph /  3.2km/h 10.0mph /  16.1km/h 37% 0.00in /  0mm 506.0 W/m2
14:55 74.5 °F /  23.6 °C 46.6 °F /  8.1 °C 29.98in /  1015.1hPa North 2.0mph /  3.2km/h 8.0mph /  12.9km/h 37% 0.00in /  0mm 490.0 W/m2
15:02 74.5 °F /  23.6 °C 46.6 °F /  8.1 °C 29.98in /  1015.1hPa North 2.9mph /  4.7km/h 7.0mph /  11.3km/h 37% 0.00in /  0mm 469.0 W/m2
15:08 74.5 °F /  23.6 °C 46.6 °F /  8.1 °C 29.98in /  1015.1hPa NW 4.9mph /  7.9km/h 8.0mph /  12.9km/h 37% 0.00in /  0mm 450.0 W/m2
15:14 74.5 °F /  23.6 °C 46.6 °F /  8.1 °C 29.98in /  1015.1hPa North 2.0mph /  3.2km/h 9.0mph /  14.5km/h 37% 0.00in /  0mm 425.0 W/m2
15:20 74.7 °F /  23.7 °C 47.3 °F /  8.5 °C 29.98in /  1015.1hPa Calm   5.0mph /  8km/h 38% 0.00in /  0mm 408.0 W/m2
15:26 74.7 °F /  23.7 °C 46.6 °F /  8.1 °C 29.98in /  1015.1hPa NNE 4.0mph /  6.4km/h 9.0mph /  14.5km/h 37% 0.00in /  0mm 388.0 W/m2
15:32 74.3 °F /  23.5 °C 47.7 °F /  8.7 °C 29.97in /  1014.8hPa North 2.0mph /  3.2km/h 7.0mph /  11.3km/h 39% 0.00in /  0mm 367.0 W/m2
15:38 74.1 °F /  23.4 °C 46.9 °F /  8.3 °C 29.98in /  1015.1hPa North 4.9mph /  7.9km/h 11.0mph /  17.7km/h 38% 0.00in /  0mm 346.0 W/m2
15:44 73.6 °F /  23.1 °C 46.4 °F /  8 °C 29.98in /  1015.1hPa North 8.1mph /  13km/h 8.1mph /  13km/h 38% 0.00in /  0mm 323.0 W/m2
15:50 73.2 °F /  22.9 °C 46.0 °F /  7.8 °C 29.98in /  1015.1hPa NE 6.0mph /  9.7km/h 10.0mph /  16.1km/h 38% 0.00in /  0mm 69.0 W/m2
15:56 72.9 °F /  22.7 °C 46.4 °F /  8 °C 29.98in /  1015.1hPa NNW 6.9mph /  11.1km/h 10.0mph /  16.1km/h 39% 0.00in /  0mm 37.0 W/m2
16:02 72.5 °F /  22.5 °C 46.8 °F /  8.2 °C 29.98in /  1015.1hPa North 4.9mph /  7.9km/h 9.0mph /  14.5km/h 40% 0.00in /  0mm 35.0 W/m2
16:08 72.1 °F /  22.3 °C 46.4 °F /  8 °C 29.98in /  1015.1hPa NNE 2.9mph /  4.7km/h 10.0mph /  16.1km/h 40% 0.00in /  0mm 30.0 W/m2
16:15 72.0 °F /  22.2 °C 46.9 °F /  8.3 °C 29.98in /  1015.1hPa NNE 6.0mph /  9.7km/h 7.0mph /  11.3km/h 41% 0.00in /  0mm 28.0 W/m2
16:19 72.0 °F /  22.2 °C 46.4 °F /  8 °C 29.98in /  1015.1hPa ENE 2.9mph /  4.7km/h 5.0mph /  8km/h 40% 0.00in /  0mm 25.0 W/m2
16:25 71.8 °F /  22.1 °C 46.8 °F /  8.2 °C 29.98in /  1015.1hPa North 6.0mph /  9.7km/h 8.0mph /  12.9km/h 41% 0.00in /  0mm 21.0 W/m2
16:31 71.4 °F /  21.9 °C 45.9 °F /  7.7 °C 29.98in /  1015.1hPa North 4.9mph /  7.9km/h 10.0mph /  16.1km/h 40% 0.00in /  0mm 21.0 W/m2
16:37 71.2 °F /  21.8 °C 46.4 °F /  8 °C 30.00in /  1015.8hPa NNW 4.0mph /  6.4km/h 6.0mph /  9.7km/h 41% 0.00in /  0mm 21.0 W/m2
16:43 70.9 °F /  21.6 °C 46.6 °F /  8.1 °C 30.00in /  1015.8hPa WNW 6.9mph /  11.1km/h 8.0mph /  12.9km/h 42% 0.00in /  0mm 25.0 W/m2
16:49 70.7 °F /  21.5 °C 46.4 °F /  8 °C 30.00in /  1015.8hPa NNW 2.9mph /  4.7km/h 6.0mph /  9.7km/h 42% 0.00in /  0mm 21.0 W/m2
16:55 70.5 °F /  21.4 °C 46.9 °F /  8.3 °C 30.00in /  1015.8hPa NNW 2.9mph /  4.7km/h 5.0mph /  8km/h 43% 0.00in /  0mm 18.0 W/m2
17:01 70.3 °F /  21.3 °C 46.2 °F /  7.9 °C 30.00in /  1015.8hPa NNW 2.9mph /  4.7km/h 7.0mph /  11.3km/h 42% 0.00in /  0mm 16.0 W/m2
17:07 70.2 °F /  21.2 °C 46.6 °F /  8.1 °C 30.01in /  1016.1hPa North 0.9mph /  1.4km/h 4.0mph /  6.4km/h 43% 0.00in /  0mm 14.0 W/m2
17:13 69.6 °F /  20.9 °C 46.2 °F /  7.9 °C 30.01in /  1016.1hPa North 4.0mph /  6.4km/h 6.0mph /  9.7km/h 43% 0.00in /  0mm 12.0 W/m2
17:19 69.4 °F /  20.8 °C 46.6 °F /  8.1 °C 30.01in /  1016.1hPa NNE 0.9mph /  1.4km/h 3.0mph /  4.8km/h 44% 0.00in /  0mm 11.0 W/m2
17:25 69.1 °F /  20.6 °C 46.8 °F /  8.2 °C 30.01in /  1016.1hPa Calm   1.0mph /  1.6km/h 45% 0.00in /  0mm 0.0 W/m2
17:31 68.7 °F /  20.4 °C 46.6 °F /  8.1 °C 30.01in /  1016.1hPa NNE 0.9mph /  1.4km/h 5.0mph /  8km/h 45% 0.00in /  0mm 0.0 W/m2
17:38 68.4 °F /  20.2 °C 46.2 °F /  7.9 °C 30.01in /  1016.1hPa Calm   4.0mph /  6.4km/h 45% 0.00in /  0mm 0.0 W/m2
17:44 68.0 °F /  20 °C 46.4 °F /  8 °C 30.01in /  1016.1hPa ENE 0.9mph /  1.4km/h 3.0mph /  4.8km/h 46% 0.00in /  0mm 0.0 W/m2
17:50 67.6 °F /  19.8 °C 46.8 °F /  8.2 °C 30.01in /  1016.1hPa ENE 0.9mph /  1.4km/h 1.0mph /  1.6km/h 47% 0.00in /  0mm 0.0 W/m2
17:56 67.3 °F /  19.6 °C 46.4 °F /  8 °C 30.02in /  1016.5hPa ENE 2.9mph /  4.7km/h 5.0mph /  8km/h 47% 0.00in /  0mm 0.0 W/m2
18:02 66.9 °F /  19.4 °C 46.6 °F /  8.1 °C 30.02in /  1016.5hPa Calm   1.0mph /  1.6km/h 48% 0.00in /  0mm 0.0 W/m2
18:08 66.7 °F /  19.3 °C 46.9 °F /  8.3 °C 30.02in /  1016.5hPa ENE 0.9mph /  1.4km/h 2.0mph /  3.2km/h 49% 0.00in /  0mm 0.0 W/m2
18:14 66.4 °F /  19.1 °C 46.6 °F /  8.1 °C 30.02in /  1016.5hPa Calm   2.0mph /  3.2km/h 49% 0.00in /  0mm 0.0 W/m2
18:21 66.0 °F /  18.9 °C 46.8 °F /  8.2 °C 30.02in /  1016.5hPa Calm   2.0mph /  3.2km/h 50% 0.00in /  0mm 0.0 W/m2
18:27 65.8 °F /  18.8 °C 46.8 °F /  8.2 °C 30.02in /  1016.5hPa Calm   2.0mph /  3.2km/h 50% 0.00in /  0mm 0.0 W/m2
18:33 65.5 °F /  18.6 °C 46.9 °F /  8.3 °C 30.03in /  1016.8hPa East 2.0mph /  3.2km/h 3.0mph /  4.8km/h 51% 0.00in /  0mm 0.0 W/m2
18:39 65.1 °F /  18.4 °C 47.1 °F /  8.4 °C 30.03in /  1016.8hPa ENE 0.9mph /  1.4km/h 3.0mph /  4.8km/h 52% 0.00in /  0mm 0.0 W/m2
18:45 64.8 °F /  18.2 °C 47.3 °F /  8.5 °C 30.03in /  1016.8hPa Calm   1.0mph /  1.6km/h 53% 0.00in /  0mm 0.0 W/m2
18:51 64.2 °F /  17.9 °C 47.7 °F /  8.7 °C 30.03in /  1016.8hPa Calm   1.0mph /  1.6km/h 55% 0.00in /  0mm 0.0 W/m2
18:57 63.9 °F /  17.7 °C 47.8 °F /  8.8 °C 30.03in /  1016.8hPa Calm   1.0mph /  1.6km/h 56% 0.00in /  0mm 0.0 W/m2
19:03 63.3 °F /  17.4 °C 47.8 °F /  8.8 °C 30.03in /  1016.8hPa Calm   1.0mph /  1.6km/h 57% 0.00in /  0mm 0.0 W/m2
19:10 62.8 °F /  17.1 °C 48.2 °F /  9 °C 30.04in /  1017.2hPa NE 2.0mph /  3.2km/h 2.0mph /  3.2km/h 59% 0.00in /  0mm 0.0 W/m2
19:16 62.2 °F /  16.8 °C 48.2 °F /  9 °C 30.04in /  1017.2hPa Calm   2.0mph /  3.2km/h 60% 0.00in /  0mm 0.0 W/m2
19:22 61.9 °F /  16.6 °C 48.2 °F /  9 °C 30.04in /  1017.2hPa Calm   2.0mph /  3.2km/h 61% 0.00in /  0mm 0.0 W/m2
19:28 61.3 °F /  16.3 °C 48.2 °F /  9 °C 30.04in /  1017.2hPa Calm   1.0mph /  1.6km/h 62% 0.00in /  0mm 0.0 W/m2
19:34 61.2 °F /  16.2 °C 48.0 °F /  8.9 °C 30.04in /  1017.2hPa ENE 0.9mph /  1.4km/h 1.0mph /  1.6km/h 62% 0.00in /  0mm 0.0 W/m2
19:40 60.8 °F /  16 °C 47.7 °F /  8.7 °C 30.05in /  1017.5hPa Calm     62% 0.00in /  0mm 0.0 W/m2
19:46 60.4 °F /  15.8 °C 47.8 °F /  8.8 °C 30.05in /  1017.5hPa Calm     63% 0.00in /  0mm 0.0 W/m2
19:52 60.3 °F /  15.7 °C 47.7 °F /  8.7 °C 30.05in /  1017.5hPa Calm     63% 0.00in /  0mm 0.0 W/m2
19:59 60.1 °F /  15.6 °C 47.8 °F /  8.8 °C 30.05in /  1017.5hPa Calm   2.0mph /  3.2km/h 64% 0.00in /  0mm 0.0 W/m2
20:05 59.9 °F /  15.5 °C 47.7 °F /  8.7 °C 30.05in /  1017.5hPa Calm   3.0mph /  4.8km/h 64% 0.00in /  0mm 0.0 W/m2
20:11 59.7 °F /  15.4 °C 47.5 °F /  8.6 °C 30.05in /  1017.5hPa ENE 0.9mph /  1.4km/h 3.0mph /  4.8km/h 64% 0.00in /  0mm 0.0 W/m2
20:17 59.5 °F /  15.3 °C 47.3 °F /  8.5 °C 30.06in /  1017.8hPa Calm   1.0mph /  1.6km/h 64% 0.00in /  0mm 0.0 W/m2
20:23 59.5 °F /  15.3 °C 47.3 °F /  8.5 °C 30.06in /  1017.8hPa Calm   1.0mph /  1.6km/h 64% 0.00in /  0mm 0.0 W/m2
20:29 59.4 °F /  15.2 °C 47.7 °F /  8.7 °C 30.06in /  1017.8hPa NE 0.9mph /  1.4km/h 3.0mph /  4.8km/h 65% 0.00in /  0mm 0.0 W/m2
20:35 59.4 °F /  15.2 °C 47.7 °F /  8.7 °C 30.06in /  1017.8hPa Calm   2.0mph /  3.2km/h 65% 0.00in /  0mm 0.0 W/m2
20:42 59.2 °F /  15.1 °C 47.5 °F /  8.6 °C 30.06in /  1017.8hPa Calm   1.0mph /  1.6km/h 65% 0.00in /  0mm 0.0 W/m2
20:48 59.2 °F /  15.1 °C 47.5 °F /  8.6 °C 30.06in /  1017.8hPa Calm   1.0mph /  1.6km/h 65% 0.00in /  0mm 0.0 W/m2
20:54 59.0 °F /  15 °C 47.3 °F /  8.5 °C 30.06in /  1017.8hPa Calm   2.0mph /  3.2km/h 65% 0.00in /  0mm 0.0 W/m2
21:00 58.8 °F /  14.9 °C 47.1 °F /  8.4 °C 30.06in /  1017.8hPa East 2.0mph /  3.2km/h 2.0mph /  3.2km/h 65% 0.00in /  0mm 0.0 W/m2
21:06 58.6 °F /  14.8 °C 46.9 °F /  8.3 °C 30.06in /  1017.8hPa Calm   1.0mph /  1.6km/h 65% 0.00in /  0mm 0.0 W/m2
21:12 58.6 °F /  14.8 °C 46.9 °F /  8.3 °C 30.06in /  1017.8hPa Calm   3.0mph /  4.8km/h 65% 0.00in /  0mm 0.0 W/m2
21:18 58.5 °F /  14.7 °C 46.8 °F /  8.2 °C 30.06in /  1017.8hPa Calm   4.0mph /  6.4km/h 65% 0.00in /  0mm 0.0 W/m2
21:24 58.5 °F /  14.7 °C 46.4 °F /  8 °C 30.06in /  1017.8hPa ESE 0.9mph /  1.4km/h 2.0mph /  3.2km/h 64% 0.00in /  0mm 0.0 W/m2
21:31 58.6 °F /  14.8 °C 46.6 °F /  8.1 °C 30.06in /  1017.8hPa Calm   3.0mph /  4.8km/h 64% 0.00in /  0mm 0.0 W/m2
21:37 58.6 °F /  14.8 °C 46.6 °F /  8.1 °C 30.06in /  1017.8hPa Calm   2.0mph /  3.2km/h 64% 0.00in /  0mm 0.0 W/m2
21:49 58.8 °F /  14.9 °C 46.6 °F /  8.1 °C 30.06in /  1017.8hPa SSE 2.0mph /  3.2km/h 4.0mph /  6.4km/h 64% 0.00in /  0mm 0.0 W/m2
21:55 58.8 °F /  14.9 °C 46.2 °F /  7.9 °C 30.06in /  1017.8hPa Calm   3.0mph /  4.8km/h 63% 0.00in /  0mm 0.0 W/m2
22:01 58.8 °F /  14.9 °C 46.2 °F /  7.9 °C 30.06in /  1017.8hPa Calm   3.0mph /  4.8km/h 63% 0.00in /  0mm 0.0 W/m2
22:07 58.6 °F /  14.8 °C 46.6 °F /  8.1 °C 30.06in /  1017.8hPa ENE 0.9mph /  1.4km/h 3.0mph /  4.8km/h 64% 0.00in /  0mm 0.0 W/m2
22:13 58.6 °F /  14.8 °C 46.0 °F /  7.8 °C 30.06in /  1017.8hPa NNE 0.9mph /  1.4km/h 2.0mph /  3.2km/h 63% 0.00in /  0mm 0.0 W/m2
22:20 58.6 °F /  14.8 °C 46.0 °F /  7.8 °C 30.06in /  1017.8hPa East 2.0mph /  3.2km/h 8.0mph /  12.9km/h 63% 0.00in /  0mm 0.0 W/m2
22:26 58.6 °F /  14.8 °C 46.0 °F /  7.8 °C 30.06in /  1017.8hPa Calm   5.0mph /  8km/h 63% 0.00in /  0mm 0.0 W/m2
22:32 58.6 °F /  14.8 °C 46.0 °F /  7.8 °C 30.07in /  1018.2hPa East 0.9mph /  1.4km/h 5.0mph /  8km/h 63% 0.00in /  0mm 0.0 W/m2
22:38 58.6 °F /  14.8 °C 46.0 °F /  7.8 °C 30.07in /  1018.2hPa Calm   5.0mph /  8km/h 63% 0.00in /  0mm 0.0 W/m2
22:44 58.6 °F /  14.8 °C 46.0 °F /  7.8 °C 30.07in /  1018.2hPa Calm   3.0mph /  4.8km/h 63% 0.00in /  0mm 0.0 W/m2
22:50 58.6 °F /  14.8 °C 46.0 °F /  7.8 °C 30.06in /  1017.8hPa Calm   6.0mph /  9.7km/h 63% 0.00in /  0mm 0.0 W/m2
22:56 58.5 °F /  14.7 °C 45.9 °F /  7.7 °C 30.06in /  1017.8hPa NNE 2.0mph /  3.2km/h 5.0mph /  8km/h 63% 0.00in /  0mm 0.0 W/m2
23:02 58.5 °F /  14.7 °C 45.9 °F /  7.7 °C 30.06in /  1017.8hPa NE 2.9mph /  4.7km/h 9.0mph /  14.5km/h 63% 0.00in /  0mm 0.0 W/m2
23:08 58.3 °F /  14.6 °C 45.7 °F /  7.6 °C 30.06in /  1017.8hPa ESE 2.9mph /  4.7km/h 5.0mph /  8km/h 63% 0.00in /  0mm 0.0 W/m2
23:14 58.1 °F /  14.5 °C 46.0 °F /  7.8 °C 30.06in /  1017.8hPa Calm   1.0mph /  1.6km/h 64% 0.00in /  0mm 0.0 W/m2
23:20 57.9 °F /  14.4 °C 46.2 °F /  7.9 °C 30.06in /  1017.8hPa Calm   2.0mph /  3.2km/h 65% 0.00in /  0mm 0.0 W/m2
23:27 57.7 °F /  14.3 °C 46.0 °F /  7.8 °C 30.06in /  1017.8hPa ENE 2.0mph /  3.2km/h 4.0mph /  6.4km/h 65% 0.00in /  0mm 0.0 W/m2
23:33 57.6 °F /  14.2 °C 45.9 °F /  7.7 °C 30.06in /  1017.8hPa Calm   3.0mph /  4.8km/h 65% 0.00in /  0mm 0.0 W/m2
23:39 57.4 °F /  14.1 °C 46.0 °F /  7.8 °C 30.06in /  1017.8hPa East 2.0mph /  3.2km/h 4.0mph /  6.4km/h 66% 0.00in /  0mm 0.0 W/m2
23:45 57.0 °F /  13.9 °C 45.3 °F /  7.4 °C 30.06in /  1017.8hPa Calm   5.0mph /  8km/h 65% 0.00in /  0mm 0.0 W/m2
23:51 56.8 °F /  13.8 °C 45.7 °F /  7.6 °C 30.06in /  1017.8hPa Calm   2.0mph /  3.2km/h 66% 0.00in /  0mm 0.0 W/m2
23:57 56.7 °F /  13.7 °C 45.5 °F /  7.5 °C 30.06in /  1017.8hPa Calm     66% 0.00in /  0mm 0.0 W/m2
Olympia, Windhoek, Namibia
Compliments of Weather Underground - 3 mb